createdAt,value
2024-04-08T00:50:28.992Z,0.90
2024-04-08T00:52:56.272Z,1.00
2024-04-08T00:55:23.846Z,1.77
2024-04-08T00:57:51.147Z,1.30
2024-04-08T01:00:17.676Z,1.20
2024-04-08T01:02:44.345Z,1.10
2024-04-08T01:05:15.047Z,1.00
2024-04-08T01:07:47.064Z,0.90
2024-04-08T01:10:14.248Z,0.70
2024-04-08T01:12:44.081Z,1.00
2024-04-08T01:15:11.223Z,0.90
2024-04-08T01:17:37.806Z,1.15
2024-04-08T01:20:04.815Z,1.10
2024-04-08T01:22:32.522Z,1.23
2024-04-08T01:24:59.905Z,1.50
2024-04-08T01:27:27.226Z,1.40
2024-04-08T01:29:54.000Z,1.10
2024-04-08T01:32:20.757Z,1.15
2024-04-08T01:34:47.267Z,1.20
2024-04-08T01:37:13.764Z,1.33
2024-04-08T01:39:40.569Z,1.40
2024-04-08T01:42:07.129Z,1.98
2024-04-08T01:44:33.691Z,2.30
2024-04-08T01:47:00.333Z,4.00
2024-04-08T01:49:29.064Z,3.33
2024-04-08T01:51:55.662Z,2.70
2024-04-08T01:54:22.657Z,1.92
2024-04-08T01:56:58.214Z,1.75
2024-04-08T01:59:24.756Z,1.90
2024-04-08T02:01:51.261Z,1.80
2024-04-08T02:04:17.749Z,1.35
2024-04-08T02:06:44.222Z,1.42
2024-04-08T02:09:10.710Z,1.20
2024-04-08T02:11:37.475Z,1.20
2024-04-08T02:14:04.097Z,1.33
2024-04-08T02:16:31.149Z,1.30
2024-04-08T02:18:57.659Z,1.30
2024-04-08T02:21:24.170Z,1.40
2024-04-08T02:23:50.710Z,1.70
2024-04-08T02:26:17.204Z,1.30
2024-04-08T02:28:43.694Z,1.60
2024-04-08T02:31:10.231Z,1.33
2024-04-08T02:33:36.833Z,1.58
2024-04-08T02:36:06.066Z,1.40
2024-04-08T02:38:34.216Z,1.70
2024-04-08T02:41:01.323Z,1.50
2024-04-08T02:43:27.950Z,1.52
2024-04-08T02:45:54.489Z,1.60
2024-04-08T02:48:21.973Z,1.70
2024-04-08T02:50:49.051Z,2.20
2024-04-08T02:53:15.677Z,2.05
2024-04-08T02:55:42.184Z,2.38
2024-04-08T02:58:08.742Z,2.10
2024-04-08T03:00:41.602Z,2.70
2024-04-08T03:03:08.166Z,1.65
2024-04-08T03:05:34.723Z,1.23
2024-04-08T03:08:01.562Z,1.30
2024-04-08T03:10:28.097Z,1.40
2024-04-08T03:12:54.938Z,1.35
2024-04-08T03:15:21.485Z,1.50
2024-04-08T03:17:48.267Z,1.88
2024-04-08T03:20:14.972Z,2.50
2024-04-08T03:22:41.617Z,2.67
2024-04-08T03:25:08.392Z,2.90
2024-04-08T03:27:35.008Z,2.63
2024-04-08T03:30:01.574Z,2.03
2024-04-08T03:32:28.110Z,2.05
2024-04-08T03:34:54.633Z,1.90
2024-04-08T03:37:27.548Z,1.70
2024-04-08T03:39:54.054Z,1.83
2024-04-08T03:42:22.526Z,1.67
2024-04-08T03:44:49.938Z,1.52
2024-04-08T03:47:16.753Z,1.52
2024-04-08T03:49:43.823Z,1.65
2024-04-08T03:52:10.333Z,1.90
2024-04-08T03:54:36.903Z,1.80
2024-04-08T03:57:03.625Z,2.00
2024-04-08T03:59:30.175Z,1.90
2024-04-08T04:01:58.793Z,1.60
2024-04-08T04:04:25.639Z,1.50
2024-04-08T04:06:52.184Z,1.85
2024-04-08T04:09:18.906Z,2.08
2024-04-08T04:11:45.436Z,1.77
2024-04-08T04:14:12.014Z,1.80
2024-04-08T04:16:38.497Z,2.25
2024-04-08T04:19:05.073Z,1.83
2024-04-08T04:21:31.591Z,1.77
2024-04-08T04:23:58.120Z,1.80
2024-04-08T04:26:24.662Z,1.45
2024-04-08T04:28:51.148Z,1.70
2024-04-08T04:31:17.914Z,2.00
2024-04-08T04:33:44.435Z,2.00
2024-04-08T04:36:10.968Z,1.85
2024-04-08T04:38:37.508Z,1.98
2024-04-08T04:41:06.955Z,1.88
2024-04-08T04:43:34.042Z,1.55
2024-04-08T04:46:00.875Z,1.67
2024-04-08T04:48:27.754Z,1.90
2024-04-08T04:50:54.772Z,1.67
2024-04-08T04:53:21.902Z,1.58
2024-04-08T04:55:54.722Z,1.38
2024-04-08T04:58:24.519Z,1.70
2024-04-08T05:00:51.573Z,1.77
2024-04-08T05:03:19.996Z,1.40
2024-04-08T05:05:57.384Z,1.85
2024-04-08T05:08:24.724Z,2.40
2024-04-08T05:10:51.590Z,2.30
2024-04-08T05:13:19.397Z,2.08
2024-04-08T05:16:15.561Z,2.45
2024-04-08T05:18:42.066Z,2.63
2024-04-08T05:21:10.459Z,3.10
2024-04-08T05:23:37.001Z,3.13
2024-04-08T05:26:04.332Z,3.80
2024-04-08T05:28:30.947Z,3.47
2024-04-08T05:30:57.545Z,5.18
2024-04-08T05:33:24.194Z,4.47
2024-04-08T05:35:50.790Z,4.80
2024-04-08T05:38:17.426Z,5.07
2024-04-08T05:40:44.053Z,5.03
2024-04-08T05:43:15.834Z,6.60
2024-04-08T05:45:43.094Z,6.22
2024-04-08T05:48:10.182Z,6.10
2024-04-08T05:50:36.760Z,6.60
2024-04-08T05:53:03.349Z,6.20
2024-04-08T05:55:31.866Z,5.70
2024-04-08T05:57:58.537Z,5.07
2024-04-08T06:00:25.297Z,5.28
2024-04-08T06:02:53.448Z,4.38
2024-04-08T06:05:21.273Z,4.53
2024-04-08T06:07:50.531Z,4.72
2024-04-08T06:10:18.353Z,4.95
2024-04-08T06:12:45.619Z,4.88
2024-04-08T06:15:13.993Z,4.75
2024-04-08T06:17:40.592Z,4.35
2024-04-08T06:20:07.779Z,3.72
2024-04-08T06:22:36.528Z,3.78
2024-04-08T06:25:04.025Z,3.20
2024-04-08T06:27:30.894Z,3.00
2024-04-08T06:29:57.537Z,2.80
2024-04-08T06:32:24.619Z,2.22
2024-04-08T06:34:51.165Z,2.53
2024-04-08T06:37:17.715Z,2.58
2024-04-08T06:39:44.306Z,3.03
2024-04-08T06:42:18.240Z,2.63
2024-04-08T06:44:49.005Z,2.55
2024-04-08T06:47:15.741Z,2.83
2024-04-08T06:49:43.206Z,2.20
2024-04-08T06:52:09.715Z,2.38
2024-04-08T06:54:36.340Z,2.10
2024-04-08T06:57:03.107Z,1.92
2024-04-08T06:59:29.763Z,2.10
2024-04-08T07:01:56.889Z,1.60
2024-04-08T07:04:23.711Z,1.80
2024-04-08T07:06:50.333Z,2.00
2024-04-08T07:09:16.825Z,1.52
2024-04-08T07:11:44.183Z,1.38
2024-04-08T07:14:10.725Z,1.10
2024-04-08T07:16:37.374Z,1.30
2024-04-08T07:19:04.245Z,1.98
2024-04-08T07:21:30.736Z,1.58
2024-04-08T07:23:57.265Z,1.42
2024-04-08T07:26:23.841Z,1.55
2024-04-08T07:28:52.045Z,1.65
2024-04-08T07:31:19.132Z,1.38
2024-04-08T07:33:45.699Z,1.63
2024-04-08T07:36:12.202Z,2.03
2024-04-08T07:38:52.564Z,1.80
2024-04-08T07:41:25.267Z,2.60
2024-04-08T07:43:51.787Z,1.45
2024-04-08T07:46:18.366Z,1.00
2024-04-08T07:48:46.866Z,1.27
2024-04-08T07:51:13.766Z,1.17
2024-04-08T07:53:40.358Z,1.33
2024-04-08T07:56:06.899Z,1.13
2024-04-08T07:58:34.877Z,1.00
2024-04-08T08:01:01.490Z,1.00
2024-04-08T08:03:28.272Z,1.00
2024-04-08T08:05:55.983Z,1.05
2024-04-08T08:08:26.208Z,1.45
2024-04-08T08:10:53.476Z,1.20
2024-04-08T08:13:20.202Z,1.17
2024-04-08T08:15:56.868Z,1.50
2024-04-08T08:18:23.905Z,0.80
2024-04-08T08:20:51.790Z,0.80
2024-04-08T08:23:18.504Z,0.95
2024-04-08T08:25:47.011Z,1.30
2024-04-08T08:28:13.655Z,1.13
2024-04-08T08:30:41.581Z,1.20
2024-04-08T08:33:08.460Z,0.98
2024-04-08T08:35:35.073Z,1.00
2024-04-08T08:38:01.587Z,1.27
2024-04-08T08:40:28.528Z,0.73
2024-04-08T08:42:57.170Z,1.08
2024-04-08T08:45:24.284Z,0.70
2024-04-08T08:47:50.925Z,0.75
2024-04-08T08:50:17.573Z,0.80
2024-04-08T08:52:44.429Z,0.82
2024-04-08T08:55:11.547Z,0.82
2024-04-08T08:57:39.027Z,1.02
2024-04-08T09:00:07.171Z,0.95
2024-04-08T09:02:36.131Z,0.70
2024-04-08T09:05:02.827Z,1.35
2024-04-08T09:07:29.317Z,0.93
2024-04-08T09:09:57.313Z,0.80
2024-04-08T09:12:24.230Z,1.50
2024-04-08T09:14:52.548Z,0.80
2024-04-08T09:17:20.019Z,0.90
2024-04-08T09:19:46.593Z,1.17
2024-04-08T09:22:13.230Z,0.90
2024-04-08T09:24:40.242Z,0.93
2024-04-08T09:27:07.248Z,0.70
2024-04-08T09:29:34.025Z,0.68
2024-04-08T09:32:01.973Z,0.95
2024-04-08T09:34:30.134Z,1.10
2024-04-08T09:36:57.208Z,0.95
2024-04-08T09:39:25.127Z,1.20
2024-04-08T09:41:53.125Z,1.20
2024-04-08T09:44:20.871Z,1.25
2024-04-08T09:46:48.339Z,1.05
2024-04-08T09:49:21.514Z,1.10
2024-04-08T09:51:53.236Z,1.23
2024-04-08T09:54:22.647Z,1.30
2024-04-08T09:56:56.985Z,1.20
2024-04-08T09:59:25.721Z,1.30
2024-04-08T10:01:55.059Z,1.10
2024-04-08T10:04:23.597Z,0.90
2024-04-08T10:06:50.960Z,1.23
2024-04-08T10:09:22.052Z,1.30
2024-04-08T10:11:53.008Z,1.10
2024-04-08T10:14:20.776Z,1.10
2024-04-08T10:16:53.682Z,1.13
2024-04-08T10:19:22.239Z,0.90
2024-04-08T10:21:53.398Z,1.02
2024-04-08T10:24:38.421Z,1.15
2024-04-08T10:27:09.375Z,1.00
2024-04-08T10:29:39.281Z,1.00
2024-04-08T10:32:07.691Z,1.38
2024-04-08T10:34:37.811Z,1.08
2024-04-08T10:37:04.664Z,1.05
2024-04-08T10:39:31.189Z,1.10
2024-04-08T10:42:15.311Z,1.10
2024-04-08T10:44:43.105Z,1.35
2024-04-08T10:47:10.299Z,1.23
2024-04-08T10:49:37.107Z,1.08
2024-04-08T10:52:04.000Z,0.90
2024-04-08T10:54:32.332Z,1.00
2024-04-08T10:56:58.851Z,0.82
2024-04-08T10:59:25.370Z,0.90
2024-04-08T11:01:51.928Z,1.05
2024-04-08T11:04:19.302Z,0.80
2024-04-08T11:06:46.198Z,0.90
2024-04-08T11:09:12.842Z,1.13
2024-04-08T11:11:39.418Z,0.73
2024-04-08T11:14:06.674Z,1.05
2024-04-08T11:16:33.707Z,1.20
2024-04-08T11:19:02.123Z,1.10
2024-04-08T11:21:28.905Z,1.00
2024-04-08T11:23:55.540Z,1.10
2024-04-08T11:26:23.277Z,1.00
2024-04-08T11:28:49.758Z,1.17
2024-04-08T11:31:16.261Z,1.13
2024-04-08T11:33:42.888Z,1.20
2024-04-08T11:36:09.812Z,1.05
2024-04-08T11:38:37.086Z,1.20
2024-04-08T11:41:07.735Z,1.10
2024-04-08T11:43:35.284Z,1.52
2024-04-08T11:46:04.555Z,1.55
2024-04-08T11:48:32.071Z,1.13
2024-04-08T11:50:58.989Z,1.73
2024-04-08T11:53:25.591Z,1.00
2024-04-08T11:55:52.179Z,1.15
2024-04-08T11:58:18.692Z,1.27
2024-04-08T12:00:45.238Z,1.10
2024-04-08T12:03:11.792Z,1.27
2024-04-08T12:05:38.375Z,1.73
2024-04-08T12:08:05.098Z,1.88
2024-04-08T12:10:31.690Z,1.70
2024-04-08T12:13:14.592Z,1.30
2024-04-08T12:15:41.107Z,1.38
2024-04-08T12:18:08.054Z,1.40
2024-04-08T12:20:37.427Z,1.42
2024-04-08T12:23:04.091Z,1.20
2024-04-08T12:25:32.457Z,0.70
2024-04-08T12:28:00.302Z,1.10
2024-04-08T12:30:29.850Z,9.00
2024-04-08T12:32:56.406Z,1.33
2024-04-08T12:35:22.987Z,1.15
2024-04-08T12:37:49.723Z,1.15
2024-04-08T12:40:16.232Z,1.20
2024-04-08T12:42:42.737Z,1.20
2024-04-08T12:45:14.911Z,1.08
2024-04-08T12:47:42.583Z,1.35
2024-04-08T12:50:09.447Z,1.17
2024-04-08T12:52:36.350Z,1.15
2024-04-08T12:55:04.373Z,1.15
2024-04-08T12:57:31.254Z,1.02
2024-04-08T12:59:57.865Z,1.02
2024-04-08T13:02:27.008Z,0.90
2024-04-08T13:04:54.695Z,1.38
2024-04-08T13:07:22.269Z,1.23
2024-04-08T13:09:50.164Z,1.38
2024-04-08T13:12:16.868Z,1.10
2024-04-08T13:14:44.069Z,1.27
2024-04-08T13:17:10.843Z,1.08
2024-04-08T13:19:37.369Z,1.25
2024-04-08T13:22:04.498Z,0.95
2024-04-08T13:24:32.055Z,1.20
2024-04-08T13:26:58.770Z,1.33
2024-04-08T13:29:25.348Z,0.90
2024-04-08T13:31:52.079Z,1.10
2024-04-08T13:34:18.968Z,1.20
2024-04-08T13:36:45.766Z,1.10
2024-04-08T13:39:12.322Z,1.40
2024-04-08T13:41:39.766Z,1.50
2024-04-08T13:44:06.372Z,1.10
2024-04-08T13:46:33.433Z,0.90
2024-04-08T13:48:59.974Z,1.08
2024-04-08T13:51:26.531Z,1.27
2024-04-08T13:53:54.495Z,1.10
2024-04-08T13:56:21.346Z,1.20
2024-04-08T13:58:50.830Z,1.10
2024-04-08T14:01:18.030Z,0.95
2024-04-08T14:03:45.038Z,0.90
2024-04-08T14:06:13.690Z,0.90
2024-04-08T14:08:40.636Z,1.17
2024-04-08T14:11:07.316Z,1.30
2024-04-08T14:13:33.885Z,1.17
2024-04-08T14:16:00.406Z,1.25
2024-04-08T14:18:27.080Z,4.32
2024-04-08T14:20:53.638Z,2.10
2024-04-08T14:23:20.112Z,0.93
2024-04-08T14:25:46.605Z,1.00
2024-04-08T14:28:13.449Z,1.25
2024-04-08T14:30:40.058Z,1.00
2024-04-08T14:33:07.261Z,1.17
2024-04-08T14:35:34.115Z,1.20
2024-04-08T14:38:21.592Z,0.90
2024-04-08T14:40:47.280Z,1.13
2024-04-08T14:43:18.930Z,1.30
2024-04-08T14:45:52.687Z,1.38
2024-04-08T14:48:19.511Z,1.20
2024-04-08T14:50:47.727Z,1.65
2024-04-08T14:53:15.703Z,1.10
2024-04-08T14:55:43.302Z,1.38
2024-04-08T14:58:10.041Z,1.30
2024-04-08T15:00:36.739Z,1.52
2024-04-08T15:03:04.280Z,1.20
2024-04-08T15:05:31.354Z,1.33
2024-04-08T15:07:57.881Z,1.63
2024-04-08T15:10:25.265Z,1.23
2024-04-08T15:12:51.885Z,0.98
2024-04-08T15:15:18.511Z,1.40
2024-04-08T15:17:46.019Z,1.27
2024-04-08T15:20:12.710Z,1.10
2024-04-08T15:22:39.396Z,1.58
2024-04-08T15:25:06.043Z,1.52
2024-04-08T15:27:32.936Z,1.30
2024-04-08T15:30:00.006Z,1.35
2024-04-08T15:32:26.975Z,1.30
2024-04-08T15:34:53.627Z,1.60
2024-04-08T15:37:20.341Z,1.50
2024-04-08T15:39:46.854Z,1.73
2024-04-08T15:42:13.402Z,1.10
2024-04-08T15:44:39.974Z,9.32
2024-04-08T15:47:06.852Z,1.50
2024-04-08T15:49:33.363Z,1.20
2024-04-08T15:51:59.858Z,1.60
2024-04-08T15:54:26.951Z,1.40
2024-04-08T15:56:54.005Z,1.20
2024-04-08T15:59:20.883Z,1.58
2024-04-08T16:01:48.503Z,1.30
2024-04-08T16:04:15.457Z,1.40
2024-04-08T16:06:42.462Z,1.40
2024-04-08T16:09:10.088Z,1.30
2024-04-08T16:11:36.874Z,1.92
2024-04-08T16:14:03.466Z,1.42
2024-04-08T16:16:30.305Z,1.35
2024-04-08T16:18:57.074Z,1.23
2024-04-08T16:21:25.516Z,1.65
2024-04-08T16:23:55.730Z,1.40
2024-04-08T16:26:23.804Z,1.88
2024-04-08T16:29:02.823Z,1.20
2024-04-08T16:31:32.828Z,1.40
2024-04-08T16:34:01.008Z,1.13
2024-04-08T16:36:30.418Z,3.47
2024-04-08T16:38:58.103Z,2.13
2024-04-08T16:41:24.743Z,1.40
2024-04-08T16:43:51.412Z,1.50
2024-04-08T16:46:19.778Z,1.20
2024-04-08T16:48:46.479Z,1.17
2024-04-08T16:51:13.173Z,1.30
2024-04-08T16:53:41.253Z,1.40
2024-04-08T16:56:07.829Z,1.27
2024-04-08T16:58:34.361Z,1.25
2024-04-08T17:01:00.970Z,1.65
2024-04-08T17:03:29.290Z,1.50
2024-04-08T17:06:07.244Z,1.90
2024-04-08T17:08:34.101Z,2.00
2024-04-08T17:11:04.669Z,1.70
2024-04-08T17:13:32.189Z,2.80
2024-04-08T17:15:59.241Z,2.30
2024-04-08T17:18:26.740Z,3.55
2024-04-08T17:20:57.071Z,1.83
2024-04-08T17:23:26.415Z,3.90
2024-04-08T17:25:54.471Z,1.75
2024-04-08T17:28:21.112Z,2.85
2024-04-08T17:30:54.365Z,1.50
2024-04-08T17:33:21.167Z,2.00
2024-04-08T17:35:58.738Z,1.80
2024-04-08T17:38:26.199Z,1.33
2024-04-08T17:40:58.039Z,1.75
2024-04-08T17:43:24.549Z,1.80
2024-04-08T17:45:51.148Z,2.13
2024-04-08T17:48:17.896Z,1.42
2024-04-08T17:50:58.996Z,1.30
2024-04-08T17:53:29.775Z,1.50
2024-04-08T17:56:07.499Z,2.95
2024-04-08T17:58:35.942Z,2.08
2024-04-08T18:01:05.030Z,1.70
2024-04-08T18:03:32.500Z,1.60
2024-04-08T18:06:15.858Z,1.58
2024-04-08T18:08:45.387Z,1.98
2024-04-08T18:11:13.127Z,1.50
2024-04-08T18:13:40.671Z,1.95
2024-04-08T18:16:13.831Z,2.30
2024-04-08T18:18:45.474Z,2.22
2024-04-08T18:21:12.612Z,2.55
2024-04-08T18:23:39.461Z,2.30
2024-04-08T18:26:16.146Z,2.17
2024-04-08T18:28:43.651Z,2.20
2024-04-08T18:31:14.926Z,2.55
2024-04-08T18:33:42.657Z,2.40
2024-04-08T18:36:13.902Z,2.47
2024-04-08T18:38:40.892Z,1.77
2024-04-08T18:41:09.360Z,2.15
2024-04-08T18:43:37.938Z,2.03
2024-04-08T18:46:08.962Z,2.10
2024-04-08T18:51:04.839Z,2.25
2024-04-08T18:53:31.801Z,2.10
2024-04-08T18:55:58.372Z,2.20
2024-04-08T18:58:24.945Z,2.47
2024-04-08T19:00:51.618Z,2.30
2024-04-08T19:03:18.464Z,2.22
2024-04-08T19:05:48.094Z,2.10
2024-04-08T19:08:16.246Z,2.70
2024-04-08T19:10:43.891Z,2.20
2024-04-08T19:13:10.844Z,2.10
2024-04-08T19:15:37.911Z,2.10
2024-04-08T19:18:05.215Z,2.35
2024-04-08T19:20:32.017Z,1.70
2024-04-08T19:22:58.536Z,1.58
2024-04-08T19:25:26.019Z,1.75
2024-04-08T19:27:55.503Z,1.80
2024-04-08T19:30:23.018Z,1.98
2024-04-08T19:32:50.195Z,1.80
2024-04-08T19:35:16.981Z,2.40
2024-04-08T19:37:44.536Z,1.95
2024-04-08T19:40:11.666Z,2.10
2024-04-08T19:42:38.252Z,2.28
2024-04-08T19:45:05.830Z,2.83
2024-04-08T19:47:34.335Z,2.45
2024-04-08T19:50:02.369Z,2.55
2024-04-08T19:52:29.355Z,2.05
2024-04-08T19:54:56.005Z,2.30
2024-04-08T19:57:22.641Z,2.58
2024-04-08T19:59:49.227Z,2.10
2024-04-08T20:02:15.786Z,2.05
2024-04-08T20:04:42.689Z,1.88
2024-04-08T20:07:09.219Z,2.10
2024-04-08T20:09:36.065Z,2.65
2024-04-08T20:12:02.701Z,1.88
2024-04-08T20:14:29.235Z,2.83
2024-04-08T20:16:55.797Z,2.22
2024-04-08T20:19:22.489Z,2.08
2024-04-08T20:21:49.839Z,2.33
2024-04-08T20:24:16.767Z,2.20
2024-04-08T20:26:43.484Z,2.70
2024-04-08T20:29:10.762Z,2.70
2024-04-08T20:31:37.267Z,2.65
2024-04-08T20:34:06.580Z,2.17
2024-04-08T20:36:33.765Z,2.40
2024-04-08T20:39:00.424Z,2.00
2024-04-08T20:41:26.977Z,2.60
2024-04-08T20:43:53.477Z,2.40
2024-04-08T20:46:20.222Z,2.65
2024-04-08T20:48:46.974Z,2.67
2024-04-08T20:51:13.729Z,2.50
2024-04-08T20:53:40.647Z,2.75
2024-04-08T20:56:08.836Z,3.13
2024-04-08T20:58:35.878Z,2.20
2024-04-08T21:01:06.633Z,2.47
2024-04-08T21:03:33.307Z,3.90
2024-04-08T21:06:04.943Z,2.95
2024-04-08T21:08:32.358Z,4.07
2024-04-08T21:11:02.723Z,4.50
2024-04-08T21:13:36.763Z,3.30
2024-04-08T21:16:06.089Z,4.05
2024-04-08T21:18:34.131Z,3.30
2024-04-08T21:21:05.910Z,4.68
2024-04-08T21:23:34.048Z,5.40
2024-04-08T21:26:10.832Z,4.13
2024-04-08T21:28:38.740Z,3.20
2024-04-08T21:31:06.099Z,10.40
2024-04-08T21:33:37.230Z,3.30
2024-04-08T21:36:05.030Z,3.17
2024-04-08T21:38:32.235Z,2.50
2024-04-08T21:41:09.294Z,2.80
2024-04-08T21:43:36.075Z,2.85
2024-04-08T21:46:04.446Z,3.08
2024-04-08T21:48:32.859Z,2.55
2024-04-08T21:51:00.976Z,2.50
2024-04-08T21:53:28.208Z,2.70
2024-04-08T21:56:00.283Z,2.92
2024-04-08T21:58:28.141Z,2.63
2024-04-08T22:00:56.570Z,2.80
2024-04-08T22:03:25.298Z,2.75
2024-04-08T22:05:52.224Z,2.75
2024-04-08T22:08:19.092Z,2.90
2024-04-08T22:10:46.020Z,3.10
2024-04-08T22:13:12.800Z,2.95
2024-04-08T22:15:39.852Z,3.13
2024-04-08T22:18:07.434Z,3.20
2024-04-08T22:20:34.416Z,3.22
2024-04-08T22:23:05.853Z,3.03
2024-04-08T22:25:32.798Z,3.00
2024-04-08T22:27:59.778Z,2.75
2024-04-08T22:30:26.431Z,3.05
2024-04-08T22:32:53.191Z,3.00
2024-04-08T22:35:20.565Z,3.10
2024-04-08T22:37:47.185Z,2.92
2024-04-08T22:40:13.698Z,3.22
2024-04-08T22:42:40.403Z,3.45
2024-04-08T22:45:07.317Z,2.92
2024-04-08T22:47:34.109Z,3.75
2024-04-08T22:50:00.658Z,3.55
2024-04-08T22:52:27.181Z,3.13
2024-04-08T22:54:53.720Z,3.45
2024-04-08T22:57:20.282Z,3.30
2024-04-08T22:59:46.782Z,3.10
2024-04-08T23:02:13.294Z,3.33
2024-04-08T23:04:40.422Z,4.00
2024-04-08T23:07:06.968Z,3.83
2024-04-08T23:09:34.185Z,4.05
2024-04-08T23:12:00.833Z,3.92
2024-04-08T23:14:27.441Z,4.50
2024-04-08T23:16:53.940Z,4.07
2024-04-08T23:19:20.524Z,3.83
2024-04-08T23:21:47.101Z,3.72
2024-04-08T23:24:13.713Z,3.60
2024-04-08T23:26:40.259Z,4.00
2024-04-08T23:29:06.733Z,4.25
2024-04-08T23:31:33.467Z,4.07
2024-04-08T23:34:00.233Z,4.13
2024-04-08T23:36:26.932Z,3.67
2024-04-08T23:38:53.527Z,4.38
2024-04-08T23:41:20.410Z,3.97
2024-04-08T23:43:47.612Z,4.22
2024-04-08T23:46:14.120Z,4.03
2024-04-08T23:48:40.856Z,3.28
2024-04-08T23:51:08.366Z,3.10
2024-04-08T23:53:34.926Z,3.47
2024-04-08T23:56:01.438Z,3.60
2024-04-08T23:58:27.991Z,3.55
